sensor_id;sensor_type;location;lat;lon;timestamp;temperature;humidity
18662;DHT22;61528;49.456;11.098;2024-03-02T05:39:38;6.70;99.90
18662;DHT22;61528;49.456;11.098;2024-03-02T05:42:05;6.70;99.90
18662;DHT22;61528;49.456;11.098;2024-03-02T05:44:31;6.60;99.90
18662;DHT22;61528;49.456;11.098;2024-03-02T05:46:57;6.60;99.90
18662;DHT22;61528;49.456;11.098;2024-03-02T05:49:23;6.50;99.90
18662;DHT22;61528;49.456;11.098;2024-03-02T05:51:49;6.60;99.90
18662;DHT22;61528;49.456;11.098;2024-03-02T05:54:15;6.50;99.90
18662;DHT22;61528;49.456;11.098;2024-03-02T05:56:41;6.40;99.90
18662;DHT22;61528;49.456;11.098;2024-03-02T05:59:07;6.40;99.90
18662;DHT22;61528;49.456;11.098;2024-03-02T06:01:42;6.30;99.90
18662;DHT22;61528;49.456;11.098;2024-03-02T06:04:12;6.30;99.90
18662;DHT22;61528;49.456;11.098;2024-03-02T06:06:38;6.40;99.90
18662;DHT22;61528;49.456;11.098;2024-03-02T06:09:05;6.40;99.90
18662;DHT22;61528;49.456;11.098;2024-03-02T06:11:36;6.30;99.90
18662;DHT22;61528;49.456;11.098;2024-03-02T06:14:04;6.40;99.90
18662;DHT22;61528;49.456;11.098;2024-03-02T06:16:30;6.40;99.90
18662;DHT22;61528;49.456;11.098;2024-03-02T06:18:56;6.40;99.90
18662;DHT22;61528;49.456;11.098;2024-03-02T06:21:24;6.30;99.90
18662;DHT22;61528;49.456;11.098;2024-03-02T06:23:50;6.30;99.90
18662;DHT22;61528;49.456;11.098;2024-03-02T06:26:16;6.30;99.90
18662;DHT22;61528;49.456;11.098;2024-03-02T06:28:42;6.30;99.90
18662;DHT22;61528;49.456;11.098;2024-03-02T06:31:08;6.30;99.90
18662;DHT22;61528;49.456;11.098;2024-03-02T06:33:34;6.30;99.90
18662;DHT22;61528;49.456;11.098;2024-03-02T06:36:00;6.30;99.90
18662;DHT22;61528;49.456;11.098;2024-03-02T06:38:26;6.30;99.90
18662;DHT22;61528;49.456;11.098;2024-03-02T06:40:52;6.30;99.90
18662;DHT22;61528;49.456;11.098;2024-03-02T06:43:18;6.40;99.90
18662;DHT22;61528;49.456;11.098;2024-03-02T06:45:51;6.40;99.90
18662;DHT22;61528;49.456;11.098;2024-03-02T06:48:18;6.40;99.90
18662;DHT22;61528;49.456;11.098;2024-03-02T06:50:49;6.40;99.90
18662;DHT22;61528;49.456;11.098;2024-03-02T06:53:15;6.40;99.90
18662;DHT22;61528;49.456;11.098;2024-03-02T06:55:45;6.40;99.90
18662;DHT22;61528;49.456;11.098;2024-03-02T06:58:14;6.40;99.90
18662;DHT22;61528;49.456;11.098;2024-03-02T07:00:43;6.50;99.90
18662;DHT22;61528;49.456;11.098;2024-03-02T07:03:10;6.50;99.90
18662;DHT22;61528;49.456;11.098;2024-03-02T07:05:36;6.50;99.90
18662;DHT22;61528;49.456;11.098;2024-03-02T07:08:02;6.50;99.90
18662;DHT22;61528;49.456;11.098;2024-03-02T07:10:30;6.50;99.90
18662;DHT22;61528;49.456;11.098;2024-03-02T07:12:56;6.50;99.90
18662;DHT22;61528;49.456;11.098;2024-03-02T07:15:22;6.60;99.90
18662;DHT22;61528;49.456;11.098;2024-03-02T07:17:54;6.70;99.90
18662;DHT22;61528;49.456;11.098;2024-03-02T07:20:20;6.70;99.90
18662;DHT22;61528;49.456;11.098;2024-03-02T07:22:46;6.70;99.90
18662;DHT22;61528;49.456;11.098;2024-03-02T07:25:12;6.70;99.90
18662;DHT22;61528;49.456;11.098;2024-03-02T07:27:39;6.70;99.90
18662;DHT22;61528;49.456;11.098;2024-03-02T07:30:06;6.80;99.90
18662;DHT22;61528;49.456;11.098;2024-03-02T07:32:32;6.90;99.90
18662;DHT22;61528;49.456;11.098;2024-03-02T07:34:57;7.00;99.90
18662;DHT22;61528;49.456;11.098;2024-03-02T07:37:24;7.10;99.90
18662;DHT22;61528;49.456;11.098;2024-03-02T07:39:50;7.20;99.90
18662;DHT22;61528;49.456;11.098;2024-03-02T07:42:16;7.30;99.90
18662;DHT22;61528;49.456;11.098;2024-03-02T07:44:45;7.40;99.90
18662;DHT22;61528;49.456;11.098;2024-03-02T07:47:11;7.50;99.90
18662;DHT22;61528;49.456;11.098;2024-03-02T07:49:38;7.60;99.90
18662;DHT22;61528;49.456;11.098;2024-03-02T07:52:04;7.60;99.90
18662;DHT22;61528;49.456;11.098;2024-03-02T07:54:29;7.60;99.90
18662;DHT22;61528;49.456;11.098;2024-03-02T07:56:55;7.70;99.90
18662;DHT22;61528;49.456;11.098;2024-03-02T07:59:21;7.90;99.90
18662;DHT22;61528;49.456;11.098;2024-03-02T08:01:49;7.80;99.90
